Abbey Dell, Indiana
Current Conditions -  °F | °C
As of 6:15 AM on Thursday 18 Dec 2014 (Local Time) from KDCY Reporting Station
Overcast Overcast  
Wind Chill: 27°   Ceiling: 1500
Heat Index: 27°   Visibility: 10mi
Dew Point: 19°   Wind: 3mph
Humidity: 74%   Direction: 50°NE
Pressure: 30.28"   Gusts: NA
Location:  38.6165°N, 86.6265°W
Report Text: KDCY 181115Z AUTO 05003KT 10SM OVC015 M03/M07 A3028 RMK AO2 T10301070
Loading
Personal Weather Stations






























Interactive Weather Map New forecast layout! Learn more

10-Day Weather Forecast

Advertisements
Track Severe Weather on mobile